Time;durP1;ratioP1;P1;durP2;ratioP2;P2;SDS_P1;SDS_P2;PMS_P1;PMS_P2;Temp;Humidity;BMP_temperature;BMP_pressure;BME280_temperature;BME280_humidity;BME280_pressure;Samples;Min_cycle;Max_cycle;Signal;HPM_P1;HPM_P2
2022/07/14 00:01:24;;;;;;;7.80;6.17;;;18.60;99.90;;;;;;5019465;28;20866;-60
2022/07/14 00:03:51;;;;;;;8.43;6.70;;;18.70;99.90;;;;;;5019683;28;20463;-58
2022/07/14 00:06:20;;;;;;;11.10;5.90;;;18.70;99.90;;;;;;5019705;28;20575;-58
2022/07/14 00:08:47;;;;;;;7.70;5.63;;;18.70;99.90;;;;;;5018928;28;20464;-58
2022/07/14 00:11:19;;;;;;;6.70;5.50;;;18.70;99.90;;;;;;5019763;28;20445;-60
2022/07/14 00:13:46;;;;;;;13.10;6.50;;;18.70;99.90;;;;;;5019057;28;20503;-60
2022/07/14 00:16:15;;;;;;;7.87;6.40;;;18.70;99.90;;;;;;5019599;28;20464;-60
2022/07/14 00:18:44;;;;;;;7.20;6.50;;;18.70;99.90;;;;;;5019519;28;20746;-59
2022/07/14 00:21:11;;;;;;;8.10;6.10;;;18.70;99.90;;;;;;5019374;28;20498;-60
2022/07/14 00:23:40;;;;;;;8.70;6.03;;;18.70;99.90;;;;;;5017845;28;20457;-60
2022/07/14 00:26:10;;;;;;;10.73;6.37;;;18.70;99.90;;;;;;5017560;28;20435;-59
2022/07/14 00:28:39;;;;;;;9.37;5.70;;;18.70;99.90;;;;;;5019294;28;20923;-60
2022/07/14 00:31:08;;;;;;;9.67;6.50;;;18.60;99.90;;;;;;5017833;28;20489;-60
2022/07/14 00:33:36;;;;;;;6.87;5.93;;;18.60;99.90;;;;;;5019148;28;20985;-60
2022/07/14 00:36:03;;;;;;;8.50;7.30;;;18.50;99.90;;;;;;5018929;28;20470;-60
2022/07/14 00:38:34;;;;;;;7.87;6.50;;;18.40;99.90;;;;;;5018868;28;20474;-60
2022/07/14 00:41:03;;;;;;;10.70;7.23;;;18.50;99.90;;;;;;5018812;28;20500;-60
2022/07/14 00:43:30;;;;;;;9.80;6.40;;;18.40;99.90;;;;;;5018727;28;20827;-58
2022/07/14 00:46:07;;;;;;;11.47;7.57;;;18.20;99.90;;;;;;5018686;28;20511;-58
2022/07/14 00:48:34;;;;;;;11.60;6.93;;;18.20;99.90;;;;;;5019026;28;20474;-60
2022/07/14 00:51:04;;;;;;;9.50;5.90;;;18.20;99.90;;;;;;5018965;28;20463;-60
2022/07/14 00:53:31;;;;;;;11.27;7.17;;;18.20;99.90;;;;;;5018468;28;20463;-59
2022/07/14 00:56:02;;;;;;;7.40;6.40;;;18.10;99.90;;;;;;5018256;28;20511;-60
2022/07/14 00:58:30;;;;;;;9.23;7.60;;;18.00;99.90;;;;;;5018472;28;20535;-59
2022/07/14 01:01:01;;;;;;;10.27;5.93;;;18.10;99.90;;;;;;5018347;28;20495;-61
2022/07/14 01:03:28;;;;;;;8.80;6.57;;;18.10;99.90;;;;;;5018307;28;20474;-60
2022/07/14 01:05:55;;;;;;;9.40;5.87;;;18.00;99.90;;;;;;5017231;28;20558;-60
2022/07/14 01:08:22;;;;;;;9.90;6.20;;;18.00;99.90;;;;;;5018371;28;20523;-60
2022/07/14 01:10:50;;;;;;;10.40;6.13;;;18.00;99.90;;;;;;5017559;28;20460;-60
2022/07/14 01:13:17;;;;;;;8.80;7.33;;;18.10;99.90;;;;;;5018434;28;20887;-60
2022/07/14 01:15:46;;;;;;;7.63;6.60;;;18.00;99.90;;;;;;5018194;28;20524;-60
2022/07/14 01:18:13;;;;;;;10.00;7.10;;;18.00;99.90;;;;;;5015247;28;20476;-61
2022/07/14 01:20:41;;;;;;;8.90;7.03;;;17.90;99.90;;;;;;5016644;28;20511;-58
2022/07/14 01:23:29;;;;;;;10.93;6.70;;;17.80;1.00;;;;;;5012993;28;20775;-60
2022/07/14 01:25:56;;;;;;;8.90;6.20;;;17.90;1.00;;;;;;5017415;28;20471;-60
2022/07/14 01:28:24;;;;;;;6.20;5.70;;;17.90;1.00;;;;;;5018194;28;20474;-60
2022/07/14 01:30:51;;;;;;;8.87;6.30;;;17.80;1.00;;;;;;5018334;28;20439;-60
2022/07/14 01:33:23;;;;;;;8.67;6.33;;;17.80;1.00;;;;;;5018360;28;20466;-60
2022/07/14 01:35:57;;;;;;;9.93;6.47;;;17.70;1.00;;;;;;5017675;28;20464;-60
2022/07/14 01:38:32;;;;;;;8.60;6.80;;;17.60;1.00;;;;;;5018045;28;20431;-60
2022/07/14 01:41:01;;;;;;;11.63;6.87;;;17.60;1.00;;;;;;5017358;28;20496;-59
2022/07/14 01:43:29;;;;;;;10.37;5.93;;;17.50;1.00;;;;;;5017695;28;20468;-60
2022/07/14 01:45:56;;;;;;;9.80;6.17;;;17.40;1.00;;;;;;5017560;28;20464;-60
2022/07/14 01:48:24;;;;;;;16.30;7.10;;;17.40;1.00;;;;;;5017520;28;20555;-60
2022/07/14 01:50:51;;;;;;;13.67;6.10;;;17.30;1.00;;;;;;5017390;28;20562;-60
2022/07/14 01:53:18;;;;;;;11.00;5.80;;;17.30;1.00;;;;;;5017900;28;20494;-60
2022/07/14 01:55:47;;;;;;;12.93;6.40;;;17.40;1.00;;;;;;5017190;28;20475;-61
2022/07/14 01:58:14;;;;;;;11.40;6.40;;;17.40;1.00;;;;;;5017805;28;20860;-61
2022/07/14 02:00:42;;;;;;;9.53;5.97;;;17.40;1.00;;;;;;5018010;28;20523;-60
2022/07/14 02:03:09;;;;;;;11.70;6.17;;;17.50;1.00;;;;;;5017641;28;20471;-60
2022/07/14 02:05:36;;;;;;;12.63;6.33;;;17.40;1.00;;;;;;5017502;28;20533;-60
2022/07/14 02:08:07;;;;;;;10.93;6.27;;;17.40;1.00;;;;;;5017424;28;20546;-60
2022/07/14 02:13:23;;;;;;;13.30;5.73;;;17.40;1.00;;;;;;5017328;28;20891;-61
2022/07/14 02:15:51;;;;;;;11.40;5.40;;;17.30;1.00;;;;;;5016993;28;20477;-60
2022/07/14 02:18:18;;;;;;;11.30;5.43;;;17.40;1.00;;;;;;5017410;28;20506;-61
2022/07/14 02:20:47;;;;;;;10.33;6.33;;;17.40;1.00;;;;;;5017514;28;20546;-61
2022/07/14 02:23:14;;;;;;;9.40;5.30;;;17.40;1.00;;;;;;5017768;28;20535;-60
2022/07/14 02:25:44;;;;;;;10.70;5.57;;;17.40;1.00;;;;;;5016978;28;20562;-61
2022/07/14 02:28:11;;;;;;;10.93;5.70;;;17.50;1.00;;;;;;5017252;28;20559;-61
2022/07/14 02:30:41;;;;;;;14.40;6.37;;;17.40;1.00;;;;;;5017233;28;20506;-61
2022/07/14 02:33:09;;;;;;;10.40;5.13;;;17.40;1.00;;;;;;5017375;28;20567;-61
2022/07/14 02:35:36;;;;;;;11.93;6.30;;;17.40;1.00;;;;;;5016944;28;20464;-60
2022/07/14 02:38:04;;;;;;;13.67;7.20;;;17.50;1.00;;;;;;5016903;28;20545;-61
2022/07/14 02:40:32;;;;;;;7.80;5.57;;;17.50;1.00;;;;;;5017282;28;20948;-61
2022/07/14 02:43:00;;;;;;;10.87;5.90;;;17.50;1.00;;;;;;5016821;28;20953;-61
2022/07/14 02:45:27;;;;;;;9.93;6.03;;;17.50;1.00;;;;;;5017754;28;20692;-61
2022/07/14 02:47:56;;;;;;;11.23;5.97;;;17.50;1.00;;;;;;5017214;28;20467;-61
2022/07/14 02:50:25;;;;;;;12.10;5.93;;;17.40;1.00;;;;;;5017153;28;20489;-61
2022/07/14 02:52:52;;;;;;;11.67;6.53;;;17.40;1.00;;;;;;5017066;28;20457;-61
2022/07/14 02:55:20;;;;;;;14.73;7.00;;;17.30;1.00;;;;;;5017208;28;20560;-60
2022/07/14 02:57:48;;;;;;;14.10;5.60;;;17.30;1.00;;;;;;5016900;28;20459;-61
2022/07/14 03:00:17;;;;;;;14.70;5.83;;;17.30;1.00;;;;;;5016263;28;20529;-60
2022/07/14 03:02:44;;;;;;;15.50;6.57;;;17.30;1.00;;;;;;5016933;28;20499;-60
2022/07/14 03:05:16;;;;;;;15.10;6.97;;;17.30;1.00;;;;;;5017264;28;20563;-61
2022/07/14 03:07:46;;;;;;;11.40;5.17;;;17.30;1.00;;;;;;5016946;28;20572;-61
2022/07/14 03:10:16;;;;;;;10.20;5.70;;;17.30;1.00;;;;;;5016816;28;20586;-61
2022/07/14 03:12:44;;;;;;;11.23;6.20;;;17.20;1.00;;;;;;5017024;28;20464;-61
2022/07/14 03:15:11;;;;;;;14.93;6.50;;;17.30;1.00;;;;;;5017441;28;20463;-61
2022/07/14 03:17:40;;;;;;;12.93;6.33;;;17.30;1.00;;;;;;5017143;28;20464;-60
2022/07/14 03:20:12;;;;;;;15.73;5.93;;;17.30;1.00;;;;;;5016788;28;20562;-61
2022/07/14 03:22:41;;;;;;;12.63;5.90;;;17.40;1.00;;;;;;5016170;28;20565;-61
2022/07/14 03:25:11;;;;;;;13.43;6.00;;;17.40;1.00;;;;;;5016926;28;20550;-61
2022/07/14 03:27:40;;;;;;;12.60;6.23;;;17.40;1.00;;;;;;5016382;28;20475;-60
2022/07/14 03:30:08;;;;;;;11.90;6.00;;;17.40;1.00;;;;;;5019177;28;20468;-61
2022/07/14 03:32:36;;;;;;;10.63;5.73;;;17.30;1.00;;;;;;5020052;28;20546;-61
2022/07/14 03:35:07;;;;;;;13.43;6.60;;;17.20;1.00;;;;;;5020487;28;20558;-60
2022/07/14 03:37:34;;;;;;;14.97;6.20;;;17.10;1.00;;;;;;5019471;28;20582;-60
2022/07/14 03:40:06;;;;;;;13.97;6.13;;;17.10;1.00;;;;;;5019964;28;20503;-61
2022/07/14 03:42:33;;;;;;;12.40;6.97;;;17.20;1.00;;;;;;5020410;28;20776;-60
2022/07/14 03:45:00;;;;;;;12.77;6.77;;;17.20;1.00;;;;;;5019974;28;20489;-60
2022/07/14 03:47:28;;;;;;;15.90;6.63;;;17.10;1.00;;;;;;5019675;28;20522;-60
2022/07/14 03:49:57;;;;;;;10.57;5.80;;;17.20;1.00;;;;;;5019814;28;20503;-60
2022/07/14 03:52:24;;;;;;;16.03;7.60;;;17.10;1.00;;;;;;5020257;28;20515;-60
2022/07/14 03:54:52;;;;;;;15.33;6.53;;;17.10;1.00;;;;;;5019963;28;20913;-60
2022/07/14 03:57:20;;;;;;;12.13;6.40;;;17.20;1.00;;;;;;5020005;28;20506;-61
2022/07/14 03:59:48;;;;;;;11.70;5.40;;;17.30;1.00;;;;;;5019604;28;20889;-60
2022/07/14 04:02:15;;;;;;;12.20;6.80;;;17.20;1.00;;;;;;5019548;28;20500;-60
2022/07/14 04:04:43;;;;;;;10.90;6.47;;;17.20;1.00;;;;;;5019263;28;20547;-60
2022/07/14 04:07:10;;;;;;;12.70;6.10;;;17.20;1.00;;;;;;5019654;28;20797;-58
2022/07/14 04:09:38;;;;;;;10.13;5.30;;;17.20;1.00;;;;;;5019608;28;20515;-59
2022/07/14 04:12:06;;;;;;;15.33;5.80;;;17.10;1.00;;;;;;5019605;28;20458;-60
2022/07/14 04:14:39;;;;;;;11.57;6.07;;;17.10;1.00;;;;;;5019508;28;20903;-60
2022/07/14 04:17:07;;;;;;;12.27;5.57;;;17.20;1.00;;;;;;5019760;28;20468;-57
2022/07/14 04:19:36;;;;;;;16.30;6.20;;;17.30;1.00;;;;;;5019790;28;20495;-61
2022/07/14 04:22:04;;;;;;;15.77;7.70;;;17.20;1.00;;;;;;5019328;28;20493;-60
2022/07/14 04:24:34;;;;;;;12.57;5.30;;;17.20;1.00;;;;;;5018480;28;20475;-60
2022/07/14 04:27:01;;;;;;;20.63;6.00;;;17.30;1.00;;;;;;5019337;28;20566;-60
2022/07/14 04:29:31;;;;;;;11.70;6.10;;;17.20;1.00;;;;;;5019711;28;20487;-60
2022/07/14 04:31:59;;;;;;;15.30;6.30;;;17.30;1.00;;;;;;5019434;28;20460;-61
2022/07/14 04:34:27;;;;;;;12.80;5.80;;;17.10;1.00;;;;;;5019296;28;20895;-61
2022/07/14 04:36:54;;;;;;;13.23;5.87;;;17.20;1.00;;;;;;5019306;28;20582;-61
2022/07/14 04:39:22;;;;;;;14.53;6.90;;;17.20;1.00;;;;;;5019148;28;20802;-60
2022/07/14 04:41:52;;;;;;;16.63;7.00;;;17.20;1.00;;;;;;5019488;28;20501;-60
2022/07/14 04:44:21;;;;;;;12.70;6.60;;;17.00;1.00;;;;;;5019089;28;20446;-60
2022/07/14 04:46:48;;;;;;;13.97;6.37;;;16.90;1.00;;;;;;5019366;28;20890;-60
2022/07/14 04:52:04;;;;;;;17.13;7.37;;;16.80;1.00;;;;;;5018556;28;20454;-60
2022/07/14 04:54:33;;;;;;;10.90;6.20;;;16.80;1.00;;;;;;5019158;28;20554;-60
2022/07/14 04:57:01;;;;;;;14.40;6.17;;;16.90;1.00;;;;;;5019023;28;20514;-60
2022/07/14 04:59:29;;;;;;;10.13;5.93;;;16.80;1.00;;;;;;5018271;28;20558;-60
2022/07/14 05:01:57;;;;;;;17.77;6.80;;;16.60;1.00;;;;;;5017521;28;20840;-60
2022/07/14 05:04:27;;;;;;;14.43;7.23;;;16.60;1.00;;;;;;5017329;28;20504;-61
2022/07/14 05:06:55;;;;;;;12.53;6.60;;;16.80;1.00;;;;;;5017775;28;20847;-60
2022/07/14 05:09:25;;;;;;;14.00;6.30;;;16.70;1.00;;;;;;5017301;28;20471;-60
2022/07/14 05:11:52;;;;;;;12.43;6.27;;;16.90;1.00;;;;;;5017967;28;20562;-60
2022/07/14 05:14:20;;;;;;;16.93;6.80;;;17.00;1.00;;;;;;5017595;28;20563;-60
2022/07/14 05:16:48;;;;;;;15.70;7.53;;;17.00;1.00;;;;;;5018798;28;20472;-61
2022/07/14 05:19:18;;;;;;;15.40;6.20;;;16.90;1.00;;;;;;5018423;28;20464;-60
2022/07/14 05:21:47;;;;;;;16.13;7.43;;;16.70;1.00;;;;;;5018002;28;20468;-61
2022/07/14 05:24:14;;;;;;;21.53;7.87;;;16.70;1.00;;;;;;5017797;28;20445;-60
2022/07/14 05:26:43;;;;;;;19.70;6.70;;;16.70;1.00;;;;;;5019559;28;20445;-60
2022/07/14 05:29:11;;;;;;;17.43;6.20;;;16.80;1.00;;;;;;5018430;28;20456;-60
2022/07/14 05:31:39;;;;;;;18.23;6.43;;;16.70;1.00;;;;;;5016029;28;20785;-61
2022/07/14 05:34:09;;;;;;;14.50;6.30;;;16.60;1.00;;;;;;5017313;28;20555;-61
2022/07/14 05:36:38;;;;;;;12.23;6.40;;;16.70;1.00;;;;;;5017135;28;20492;-60
2022/07/14 05:39:10;;;;;;;11.27;7.00;;;16.80;1.00;;;;;;5016584;28;20464;-60
2022/07/14 05:41:39;;;;;;;11.23;6.33;;;16.80;1.00;;;;;;4997068;28;20476;-60
2022/07/14 05:44:09;;;;;;;16.67;7.50;;;16.80;1.00;;;;;;4998340;28;20492;-60
2022/07/14 05:46:36;;;;;;;15.37;6.73;;;17.00;1.00;;;;;;4998320;28;20439;-60
2022/07/14 05:49:04;;;;;;;14.43;7.00;;;17.20;1.00;;;;;;4998548;28;20900;-61
2022/07/14 05:51:31;;;;;;;15.53;6.40;;;17.40;1.00;;;;;;4997430;28;20563;-61
2022/07/14 05:54:06;;;;;;;15.77;7.47;;;17.60;1.00;;;;;;4997696;28;20439;-60
2022/07/14 05:56:36;;;;;;;16.47;6.83;;;17.90;1.00;;;;;;4997520;28;20476;-60
2022/07/14 05:59:03;;;;;;;20.20;6.80;;;18.20;99.90;;;;;;4997904;28;20469;-61
2022/07/14 06:01:32;;;;;;;12.23;6.57;;;18.40;99.90;;;;;;4997775;28;20471;-60
2022/07/14 06:03:59;;;;;;;14.30;6.20;;;18.70;99.90;;;;;;4998206;28;20497;-60
2022/07/14 06:06:29;;;;;;;12.90;6.00;;;19.20;99.90;;;;;;4997814;28;20468;-61
2022/07/14 06:08:58;;;;;;;17.23;7.03;;;19.70;99.90;;;;;;4998196;28;20463;-61
2022/07/14 06:11:28;;;;;;;14.73;6.83;;;19.90;99.90;;;;;;4997765;28;20839;-61
2022/07/14 06:13:56;;;;;;;17.63;6.13;;;20.00;99.90;;;;;;4997383;28;20557;-61
2022/07/14 06:16:28;;;;;;;14.23;6.33;;;20.20;99.90;;;;;;4998290;28;20805;-61
2022/07/14 06:19:03;;;;;;;13.03;5.73;;;20.30;99.90;;;;;;5031313;28;20916;-61
2022/07/14 06:21:35;;;;;;;14.60;6.10;;;20.10;99.90;;;;;;5035781;28;20537;-61
2022/07/14 06:24:02;;;;;;;11.10;5.70;;;20.30;99.90;;;;;;5035880;28;20495;-61
2022/07/14 06:26:30;;;;;;;15.50;6.23;;;19.80;99.90;;;;;;5035835;28;20463;-60
2022/07/14 06:28:59;;;;;;;13.60;5.87;;;19.90;99.90;;;;;;5036621;28;20975;-61
2022/07/14 06:31:26;;;;;;;15.53;6.07;;;19.60;99.90;;;;;;5035385;28;20467;-61
2022/07/14 06:33:53;;;;;;;14.47;6.60;;;18.70;99.90;;;;;;5035888;28;20470;-61
2022/07/14 06:36:22;;;;;;;13.30;5.63;;;18.60;99.90;;;;;;5036136;28;20589;-59
2022/07/14 06:38:52;;;;;;;9.43;5.20;;;18.40;99.90;;;;;;5035707;28;20965;-59
2022/07/14 06:41:21;;;;;;;14.30;5.70;;;18.70;99.90;;;;;;5036115;28;20537;-61
2022/07/14 06:43:49;;;;;;;12.50;5.70;;;19.10;99.90;;;;;;5036162;28;20494;-61
2022/07/14 06:46:19;;;;;;;11.77;5.90;;;19.50;99.90;;;;;;5035986;28;20444;-61
2022/07/14 06:48:48;;;;;;;11.53;6.20;;;19.60;99.90;;;;;;5035447;28;20940;-61
2022/07/14 06:51:15;;;;;;;21.43;6.00;;;19.50;99.90;;;;;;5036566;28;20872;-61
2022/07/14 06:53:43;;;;;;;16.67;6.03;;;19.40;99.90;;;;;;5036558;28;20497;-60
2022/07/14 06:56:10;;;;;;;14.17;6.83;;;19.00;99.90;;;;;;5037084;28;20830;-60
2022/07/14 06:58:38;;;;;;;15.00;6.43;;;18.80;99.90;;;;;;5036998;28;20473;-60
2022/07/14 07:01:06;;;;;;;15.80;6.83;;;19.00;99.90;;;;;;5036801;28;20463;-60
2022/07/14 07:03:36;;;;;;;14.33;7.30;;;18.80;99.90;;;;;;5037454;28;20499;-61
2022/07/14 07:08:52;;;;;;;11.47;5.97;;;18.80;99.90;;;;;;5039782;28;20413;-61
2022/07/14 07:11:21;;;;;;;13.03;6.30;;;18.80;99.90;;;;;;5040053;28;20459;-61
2022/07/14 07:13:49;;;;;;;12.40;6.50;;;19.20;99.90;;;;;;5040836;28;20451;-61
2022/07/14 07:16:17;;;;;;;15.90;7.30;;;19.30;99.90;;;;;;5040339;28;20517;-60
2022/07/14 07:18:46;;;;;;;16.17;8.20;;;18.80;99.90;;;;;;5004453;28;20480;-60
2022/07/14 07:21:18;;;;;;;12.47;7.00;;;18.60;99.90;;;;;;4998694;28;20555;-61
2022/07/14 07:23:46;;;;;;;15.13;6.73;;;18.40;99.90;;;;;;4999903;28;20536;-60
2022/07/14 07:26:17;;;;;;;17.60;6.10;;;18.60;99.90;;;;;;5000521;28;20483;-60
2022/07/14 07:28:44;;;;;;;14.50;5.30;;;18.50;99.90;;;;;;5000487;28;20523;-61
2022/07/14 07:31:13;;;;;;;16.87;5.90;;;18.50;99.90;;;;;;5006454;28;20468;-61
2022/07/14 07:33:42;;;;;;;12.50;7.00;;;18.90;99.90;;;;;;5000447;28;20800;-61
2022/07/14 07:36:15;;;;;;;10.53;5.77;;;19.30;99.90;;;;;;5000141;28;20464;-61
2022/07/14 07:38:44;;;;;;;12.23;6.50;;;19.60;99.90;;;;;;5000787;28;20468;-61
2022/07/14 07:41:17;;;;;;;17.13;6.57;;;19.40;99.90;;;;;;5000755;28;20755;-59
2022/07/14 07:43:45;;;;;;;12.07;7.00;;;19.70;99.90;;;;;;5000451;28;20582;-59
2022/07/14 07:46:12;;;;;;;14.40;7.83;;;19.20;99.90;;;;;;5000249;28;20563;-60
2022/07/14 07:48:39;;;;;;;11.53;6.30;;;18.90;99.90;;;;;;4999726;28;20461;-59
2022/07/14 07:51:07;;;;;;;13.60;7.50;;;18.70;99.90;;;;;;5000401;28;20530;-61
2022/07/14 07:53:36;;;;;;;14.87;7.80;;;18.90;99.90;;;;;;5009602;28;20430;-60
2022/07/14 07:56:07;;;;;;;17.10;10.30;;;19.10;99.90;;;;;;5019017;28;20495;-59
2022/07/14 07:58:35;;;;;;;17.33;9.03;;;19.10;99.90;;;;;;5015961;28;20577;-61
2022/07/14 08:01:03;;;;;;;11.87;7.87;;;19.50;99.90;;;;;;5018082;28;20460;-61
2022/07/14 08:03:30;;;;;;;13.20;9.57;;;19.50;99.90;;;;;;5018366;28;20749;-60
2022/07/14 08:05:58;;;;;;;11.43;8.50;;;19.90;99.90;;;;;;5018311;28;20494;-61
2022/07/14 08:08:25;;;;;;;13.77;8.70;;;19.90;99.90;;;;;;5018801;28;20551;-59
2022/07/14 08:10:56;;;;;;;8.33;7.00;;;19.80;99.90;;;;;;5018640;28;20452;-61
2022/07/14 08:13:25;;;;;;;12.10;7.10;;;19.60;99.90;;;;;;5018076;28;20467;-60
2022/07/14 08:15:53;;;;;;;9.33;6.03;;;19.80;99.90;;;;;;5015801;28;20460;-61
2022/07/14 08:18:26;;;;;;;9.13;6.00;;;20.50;99.90;;;;;;5017429;28;20542;-61
2022/07/14 08:20:53;;;;;;;8.47;6.30;;;22.20;99.90;;;;;;5016410;28;20453;-61
2022/07/14 08:23:21;;;;;;;9.60;6.00;;;23.50;99.90;;;;;;5017811;28;20524;-62
2022/07/14 08:25:48;;;;;;;8.57;5.60;;;24.30;99.90;;;;;;5018221;28;21403;-61
2022/07/14 08:28:21;;;;;;;9.17;5.90;;;24.20;99.90;;;;;;5015972;28;20464;-61
2022/07/14 08:30:49;;;;;;;9.03;5.00;;;24.10;99.90;;;;;;5018867;28;20466;-61
2022/07/14 08:33:19;;;;;;;8.07;5.20;;;23.20;99.90;;;;;;5015255;28;20554;-61
2022/07/14 08:35:47;;;;;;;10.97;5.10;;;22.60;99.90;;;;;;5018070;28;20811;-62
2022/07/14 08:38:14;;;;;;;7.63;3.43;;;22.60;99.90;;;;;;5015419;28;20487;-59
2022/07/14 08:40:42;;;;;;;6.83;3.70;;;22.30;99.90;;;;;;5017891;28;20456;-61
2022/07/14 08:43:11;;;;;;;9.80;4.50;;;22.50;99.90;;;;;;5017855;28;20576;-61
2022/07/14 08:45:43;;;;;;;8.90;5.00;;;22.60;99.90;;;;;;5017456;28;20472;-61
2022/07/14 08:48:11;;;;;;;8.03;4.50;;;22.00;99.90;;;;;;5017684;28;20514;-61
2022/07/14 08:50:39;;;;;;;6.63;3.60;;;22.10;99.90;;;;;;5018277;28;20498;-61
2022/07/14 08:53:08;;;;;;;5.73;3.70;;;22.00;99.90;;;;;;5017241;28;20850;-61
2022/07/14 08:55:40;;;;;;;6.83;3.40;;;22.60;99.90;;;;;;5017428;28;20455;-61
2022/07/14 08:58:07;;;;;;;6.60;3.57;;;21.90;99.90;;;;;;5018046;28;20467;-59
2022/07/14 09:00:38;;;;;;;7.70;3.43;;;21.80;99.90;;;;;;5016426;28;20434;-60
2022/07/14 09:03:07;;;;;;;8.10;3.63;;;21.40;99.90;;;;;;4997763;28;20485;-61
2022/07/14 09:05:35;;;;;;;7.00;3.33;;;21.20;99.90;;;;;;4998198;28;20505;-61
2022/07/14 09:08:02;;;;;;;9.20;3.53;;;21.10;99.90;;;;;;4997856;28;20464;-61
2022/07/14 09:10:30;;;;;;;8.47;4.10;;;21.70;99.90;;;;;;4998637;28;20473;-61
2022/07/14 09:13:13;;;;;;;7.23;4.00;;;21.90;99.90;;;;;;4999021;28;20857;-61
2022/07/14 09:15:47;;;;;;;10.80;4.60;;;22.40;99.90;;;;;;4998380;28;20443;-62
2022/07/14 09:18:22;;;;;;;12.50;4.70;;;22.30;99.90;;;;;;4998924;28;20435;-61
2022/07/14 09:20:51;;;;;;;7.43;4.10;;;22.10;99.90;;;;;;4998312;28;20889;-60
2022/07/14 09:23:30;;;;;;;7.03;3.73;;;23.20;99.90;;;;;;4997929;28;20555;-61
2022/07/14 09:26:11;;;;;;;8.03;3.50;;;24.30;99.90;;;;;;4997121;28;20567;-61
2022/07/14 09:28:45;;;;;;;5.70;3.03;;;25.50;99.90;;;;;;4997536;28;20442;-61
2022/07/14 09:31:22;;;;;;;7.17;3.03;;;24.30;99.90;;;;;;4997336;28;20464;-60
2022/07/14 09:33:53;;;;;;;5.13;3.27;;;24.90;99.90;;;;;;4998003;28;20464;-61
2022/07/14 09:36:26;;;;;;;5.20;3.47;;;24.60;99.90;;;;;;4997161;28;20596;-62
2022/07/14 09:38:57;;;;;;;5.80;3.30;;;24.20;99.90;;;;;;4998346;28;20469;-61
2022/07/14 09:41:29;;;;;;;4.20;2.97;;;25.30;99.90;;;;;;5003352;28;20760;-61
2022/07/14 09:44:10;;;;;;;7.20;4.10;;;24.60;99.90;;;;;;5016047;28;20781;-61
2022/07/14 09:46:47;;;;;;;7.13;3.40;;;24.80;99.90;;;;;;5016504;28;20776;-61
2022/07/14 09:49:20;;;;;;;5.20;4.27;;;24.80;99.90;;;;;;5013745;28;20471;-60
2022/07/14 09:51:58;;;;;;;7.80;3.23;;;24.60;99.90;;;;;;5013445;28;20510;-61
2022/07/14 09:54:49;;;;;;;6.10;4.13;;;24.20;99.90;;;;;;5015391;28;20971;-62
2022/07/14 09:57:28;;;;;;;6.90;3.60;;;24.40;99.90;;;;;;5014309;28;20495;-61
2022/07/14 10:00:02;;;;;;;9.80;4.43;;;25.30;99.90;;;;;;5014413;28;20464;-61
2022/07/14 10:02:31;;;;;;;7.27;4.70;;;24.30;99.90;;;;;;5017312;28;20507;-61
2022/07/14 10:05:01;;;;;;;7.07;4.23;;;24.40;99.90;;;;;;5017631;28;20491;-61
2022/07/14 10:07:34;;;;;;;8.00;3.70;;;24.60;99.90;;;;;;5016912;28;20468;-62
2022/07/14 10:10:05;;;;;;;8.73;3.70;;;24.20;99.90;;;;;;5017262;28;20439;-61
2022/07/14 10:12:36;;;;;;;8.20;3.83;;;24.60;99.90;;;;;;5017459;28;20489;-60
2022/07/14 10:15:12;;;;;;;8.20;3.90;;;24.10;99.90;;;;;;5017276;28;20463;-61
2022/07/14 10:17:46;;;;;;;9.93;3.80;;;23.40;99.90;;;;;;5013721;28;20479;-60
2022/07/14 10:20:20;;;;;;;9.87;4.17;;;23.50;99.90;;;;;;5016535;28;20468;-61
2022/07/14 10:22:48;;;;;;;8.83;3.40;;;23.40;99.90;;;;;;5015595;28;20464;-61
2022/07/14 10:25:17;;;;;;;6.57;2.77;;;23.40;99.90;;;;;;5014994;28;20488;-61
2022/07/14 10:27:48;;;;;;;7.07;3.53;;;23.50;99.90;;;;;;5016202;28;20809;-61
2022/07/14 10:30:17;;;;;;;6.00;3.00;;;23.80;99.90;;;;;;5011908;28;20496;-57
2022/07/14 10:32:54;;;;;;;5.60;3.10;;;24.80;99.90;;;;;;5003042;28;20468;-60
2022/07/14 10:35:54;;;;;;;3.83;3.10;;;24.60;99.90;;;;;;5008958;28;20461;-60
2022/07/14 10:38:56;;;;;;;2.67;2.23;;;24.90;99.90;;;;;;4997750;28;20496;-59
2022/07/14 10:41:42;;;;;;;4.50;2.80;;;25.60;99.90;;;;;;4975811;28;20464;-61
2022/07/14 10:44:16;;;;;;;3.53;2.87;;;25.60;99.90;;;;;;5001819;28;20514;-61
2022/07/14 10:46:51;;;;;;;5.53;2.53;;;26.50;99.90;;;;;;5015566;28;20472;-61
2022/07/14 10:49:19;;;;;;;3.83;2.93;;;26.70;99.90;;;;;;5020167;28;20463;-60
2022/07/14 10:51:50;;;;;;;4.37;2.70;;;27.10;99.90;;;;;;5019457;28;20468;-61
2022/07/14 10:54:24;;;;;;;5.07;3.50;;;26.80;99.90;;;;;;5020010;28;20464;-59
2022/07/14 10:57:12;;;;;;;6.37;2.90;;;26.20;99.90;;;;;;5020469;28;20533;-61
2022/07/14 10:59:40;;;;;;;3.40;2.30;;;25.80;99.90;;;;;;5024890;28;20491;-60
2022/07/14 11:02:38;;;;;;;5.63;2.90;;;26.40;99.90;;;;;;5020156;28;20529;-61
2022/07/14 11:05:14;;;;;;;4.17;2.63;;;26.00;99.90;;;;;;5014709;28;20558;-60
2022/07/14 11:07:51;;;;;;;3.37;2.70;;;25.90;99.90;;;;;;5020001;28;20463;-61
2022/07/14 11:11:09;;;;;;;3.90;1.83;;;26.70;99.90;;;;;;5020730;28;20763;-61
2022/07/14 11:14:05;;;;;;;2.87;2.13;;;26.00;99.90;;;;;;5020110;28;20472;-60
2022/07/14 11:16:59;;;;;;;3.10;2.50;;;25.90;99.90;;;;;;5020709;28;20907;-61
2022/07/14 11:19:40;;;;;;;3.60;2.70;;;25.90;99.90;;;;;;5019525;28;20482;-58
2022/07/14 11:22:13;;;;;;;6.10;3.33;;;25.60;99.90;;;;;;5020520;28;20468;-61
2022/07/14 11:24:51;;;;;;;5.13;2.97;;;26.50;99.90;;;;;;5019518;28;20523;-60
2022/07/14 11:27:39;;;;;;;4.00;2.57;;;26.30;99.90;;;;;;5020612;28;20465;-60
2022/07/14 11:30:30;;;;;;;5.07;3.13;;;26.00;99.90;;;;;;5020470;28;20467;-61
2022/07/14 11:33:11;;;;;;;3.40;2.30;;;25.70;99.90;;;;;;5020401;28;20463;-59
2022/07/14 11:38:35;;;;;;;4.47;2.63;;;25.30;99.90;;;;;;4999991;28;20523;-59
2022/07/14 11:41:10;;;;;;;11.73;3.27;;;25.00;99.90;;;;;;5000476;28;20460;-61
2022/07/14 11:43:51;;;;;;;6.80;3.00;;;25.60;99.90;;;;;;5011396;28;20892;-60
2022/07/14 11:46:22;;;;;;;8.20;3.47;;;27.10;99.90;;;;;;5019474;28;20499;-60
2022/07/14 11:48:53;;;;;;;9.60;2.60;;;27.20;99.90;;;;;;5019707;28;20502;-61
2022/07/14 11:51:26;;;;;;;3.80;2.53;;;25.70;99.90;;;;;;5019946;28;20807;-61
2022/07/14 11:53:58;;;;;;;4.43;2.93;;;25.70;99.90;;;;;;5019412;28;20559;-62
2022/07/14 11:56:29;;;;;;;4.80;2.80;;;26.00;99.90;;;;;;5019997;28;20472;-61
2022/07/14 11:59:03;;;;;;;4.93;3.20;;;27.30;99.90;;;;;;5019808;28;20831;-61
2022/07/14 12:01:39;;;;;;;4.60;2.50;;;27.70;99.90;;;;;;5019500;28;20438;-61
2022/07/14 12:04:11;;;;;;;5.00;2.77;;;28.40;99.90;;;;;;5019735;28;20862;-61
2022/07/14 12:06:40;;;;;;;6.63;2.80;;;28.20;99.90;;;;;;5019851;28;20659;-61
2022/07/14 12:09:09;;;;;;;5.00;2.90;;;27.40;99.90;;;;;;5019773;28;20464;-61
2022/07/14 12:11:38;;;;;;;4.53;2.80;;;27.40;99.90;;;;;;5019306;28;20475;-61
2022/07/14 12:14:15;;;;;;;5.10;3.03;;;27.10;99.90;;;;;;5019558;28;20460;-55
2022/07/14 12:16:44;;;;;;;5.00;2.67;;;26.60;99.90;;;;;;5019361;28;20438;-60
2022/07/14 12:19:17;;;;;;;6.80;3.40;;;27.10;99.90;;;;;;5016410;28;20558;-61
2022/07/14 12:21:44;;;;;;;3.70;2.37;;;26.40;99.90;;;;;;5018004;28;20572;-60
2022/07/14 12:24:22;;;;;;;3.90;3.10;;;26.70;99.90;;;;;;5019206;28;20863;-59
2022/07/14 12:26:51;;;;;;;6.03;2.80;;;26.90;99.90;;;;;;5019026;28;20464;-61
2022/07/14 12:29:18;;;;;;;4.13;2.20;;;27.50;99.90;;;;;;5019689;28;20496;-61
2022/07/14 12:31:49;;;;;;;4.70;3.30;;;28.50;99.90;;;;;;5018855;28;20558;-61
2022/07/14 12:34:17;;;;;;;4.13;2.83;;;27.60;99.90;;;;;;5019352;28;20468;-62
2022/07/14 12:36:45;;;;;;;5.77;3.40;;;28.40;99.90;;;;;;5019307;28;20495;-61
2022/07/14 12:39:20;;;;;;;8.20;3.17;;;28.70;99.90;;;;;;5019506;28;20816;-61
2022/07/14 12:41:48;;;;;;;3.63;2.73;;;27.90;99.90;;;;;;5017927;28;20772;-61
2022/07/14 12:44:21;;;;;;;3.33;2.30;;;27.50;99.90;;;;;;5017909;28;20504;-62
2022/07/14 12:47:10;;;;;;;3.93;3.40;;;28.20;99.90;;;;;;5018739;28;20932;-61
2022/07/14 12:49:44;;;;;;;5.63;3.47;;;28.60;99.90;;;;;;5017646;28;20464;-57
2022/07/14 12:52:15;;;;;;;4.00;3.07;;;27.60;99.90;;;;;;5017150;28;20468;-61
2022/07/14 12:54:48;;;;;;;4.00;3.60;;;25.90;99.90;;;;;;5018284;28;21027;-62
2022/07/14 12:57:25;;;;;;;2.93;2.63;;;25.30;99.90;;;;;;5019039;28;20904;-61
2022/07/14 12:59:56;;;;;;;4.27;2.80;;;24.80;99.90;;;;;;5018238;28;20464;-61
2022/07/14 13:02:25;;;;;;;5.53;2.83;;;25.10;99.90;;;;;;5016962;28;20550;-61
2022/07/14 13:05:00;;;;;;;3.77;2.90;;;25.40;99.90;;;;;;5016943;28;20531;-56
2022/07/14 13:07:33;;;;;;;4.30;3.10;;;25.90;99.90;;;;;;5015663;28;20475;-62
2022/07/14 13:10:09;;;;;;;6.03;3.20;;;26.70;99.90;;;;;;5013615;28;20765;-59
2022/07/14 13:12:39;;;;;;;5.50;3.00;;;26.40;99.90;;;;;;5016796;28;20456;-62
2022/07/14 13:15:12;;;;;;;3.80;3.40;;;27.20;99.90;;;;;;5016896;28;20984;-61